Aktualne dane pomiarowe

Uwaga, wersja testowa! Automatyczne pobieranie danych za pomocą narzędzi lub skryptów to umożliwiających jest zabronione.

Dane meteo z obszaru Polski uzyskane na podstawie depesz SYNOP pobieranych co godzinę z NWS. Najedź myszką na symbol przedstawiony w tabeli, aby uzyskać informacje co do jego znaczenia. Prosimy pamiętać, że to testowa wersja strony, która jeszcze nie jest ukończona. Stworzono również jest krótki FAQ dotyczący korzystania z tej podstrony Anomalie temperatury w chwili obecnej odniesione są do okresu referencyjnego 1951-2016. Okres ten będzie później zmieniony na 1981-2010. Kliknij ikonę aby pobrać plik CSV. Kliknij ikonę aby wygenerować mapę synoptyczną dla danego terminu.

Wybierz Datę:    

        

Łódź (12465)

Dane terminowe dla wybranej stacji. Kliknij datę, aby otrzymać dane z tego terminu dla wszystkich stacji.

TemperaturaZachmurzenieWiatrCiśnienieOpadyPogoda
 Data t td wb tx tn tg rh  Nt Nl Cl Cm Ch ws wd g1 g2 wx mslp ppp ch 24h 12h t ww ww w1 w2  
2019-06-16 23:00:00 16.9 12.4 14.0--- 7520.0wx-wx1wx--11020.6 999.1 2.0---------
2019-06-16 22:00:00 17.9 12.1 14.2--- 6920.0wx-wx1wx--11020.4 998.9 1.7---------
2019-06-16 21:00:00 19.2 12.7 15.0--- 6620.0wx-wxwx3wx--31019.8 998.4 1.9---------
2019-06-16 20:00:00 20.0 13.5 15.8--- 6620.0wx-wxwx3wx--31018.4 997.1 1.0---------
2019-06-16 19:00:00 21.5 13.5 16.4--- 6020.0wx-wxwx5wx--51018.4 997.2 1.8---------
2019-06-16 18:00:00 23.5 14.9 18.0 26.1 21.5- 5920.0wxwxwxwx3wx-1131017.5 996.5 0.6- 0.012------
2019-06-16 17:00:00 24.8 14.1 18.0--- 5120.0wxwxwxwxwx3---31017.0 996.1 0.1---------
2019-06-16 16:00:00 24.7 13.7 17.8--- 5020.0wxwxwxwxwx3---31016.3 995.4 -0.5---------
2019-06-16 15:00:00 25.1 13.7 18.0--- 4920.0wxwxwxwxwx5wx-1151016.8 995.9 -0.3---------
2019-06-16 14:00:00 25.2 14.4 18.4--- 5120.0wxwxwxwxwx4---41016.9 996.0 0.3---------
2019-06-16 13:00:00 25.0 13.9 18.0--- 5020.0wxwxwxwx5wx-1151016.8 995.9 0.2---------
2019-06-16 12:00:00 24.6 14.8 18.3--- 5420.0wxwxwxwx6wx-1061017.1 996.2 1.2- 0.06------
2019-06-16 11:00:00 24.3 15.6 18.6--- 5820.0wxwxwxwx5wx-1051016.6 995.7 1.4---------
2019-06-16 10:00:00 24.2 15.8 18.7--- 5920.0wxwxwxwx5wx---1016.6 995.7 2.1---------
2019-06-16 09:00:00 24.2 15.8 18.7--- 5920.0wxwxwxwx5wx--51015.9 995.0 1.7---------
2019-06-16 08:00:00 23.4 17.5 19.4--- 7020.0wxwxwxwx5wx--51015.3 994.3 1.5---------
2019-06-16 07:00:00 23.3 17.8 19.5--- 7120.0wxwxwxwx4wx--41014.6 993.6 1.3---------
2019-06-16 06:00:00 21.5 17.8 18.9 29.2 18.1 17 8020.0wxwxwxwx3wx--31014.4 993.3 0.6- 0.012----- 12.0
2019-06-16 05:00:00 20.0 17.1 18.0--- 8320.0wx-wxwx3wx--31014.0 992.8 0.5---------
2019-06-16 04:00:00 19.4 16.4 17.3--- 8320.0wx-wxwx3wx--31013.5 992.3 1.0---------
2019-06-16 03:00:00 18.7 16.3 17.0--- 8620.0wx-wxwx4wx--41014.0 992.7 0.8---------
2019-06-16 02:00:00 18.5 15.7 16.5--- 8420.0wx-wxwx2wx--21013.6 992.3 0.6---------
2019-06-16 01:00:00 19.9 15.7 17.0--- 7720.0wx-wxwx2wx--21012.5 991.3 0.6---------
2019-06-16 00:00:00 21.3 15.7 17.5--- 7020.0wxwxwxwxwx4wx--41013.0 991.9 2.2- 0.06------
2019-06-15 23:00:00 22.7 15.6 18.0--- 6420.0wxwxwxwxwx6wx--61012.7 991.7 1.9---wx---
2019-06-15 22:00:00 24.1 17.4 19.6--- 6620.0wxwxwxwxwx5wx--51011.5 990.7 1.2---wx---
2019-06-15 21:00:00 23.7 18.7 20.2--- 7420.0wx-wxwx1wx--11010.5 989.7 0.4---------
2019-06-15 20:00:00 25.8 18.6 20.9--- 6520.0wxwxwxwxwx1wx--11010.5 989.8 0.0---------
2019-06-15 19:00:00 26.4 18.1 20.8--- 6020.0wx-wxwx2wx---1010.2 989.5 -0.4---------
2019-06-15 18:00:00 29.2 17.2 21.3 33.5 23.7- 4820.0wx-wxwx2wx-1021009.8 989.3 -1.2- 0.012------
2019-06-15 17:00:00 31.2 16.9 21.9--- 4220.0wx-wx2wx--21010.1 989.8 -1.3---------
2019-06-15 16:00:00 32.2 16.2 21.9--- 3820.0wx-wx3wx--31010.2 989.9 -1.6---------
2019-06-15 15:00:00 32.9 15.5 21.8--- 3520.0wxwxwxwx4wx-1041010.7 990.5 -1.5---------
2019-06-15 14:00:00 32.2 17.4 22.5--- 4120.0wxwxwxwx3wx--31011.4 991.1 -1.6---------
2019-06-15 13:00:00 31.6 17.6 22.4--- 4320.0wxwxwxwx4wx-1041011.8 991.5 -1.7---------
2019-06-15 12:00:00 31.4 19.5 23.4--- 4920.0wxwxwxwx4wx--41012.4 992.0 -1.8- 0.06------
2019-06-15 11:00:00 30.6 20.0 23.4--- 5320.0wxwxwxwx5wx--51013.1 992.7 -1.6---------
2019-06-15 10:00:00 30.2 20.3 23.4--- 5620.0wxwxwxwx4wx--41013.7 993.2 -1.5---------
2019-06-15 09:00:00 28.7 19.7 22.6--- 5820.0wxwxwxwx4wx--41014.4 993.8 -1.3---------
2019-06-15 08:00:00 27.7 19.8 22.3--- 6220.0wx-wx5wx--51015.0 994.3 -1.4---------
2019-06-15 07:00:00 25.6 19.1 21.1--- 6720.0wx-wx5wx--51015.5 994.7 -1.4---------
2019-06-15 06:00:00 23.8 18.5 20.1 26.0 19.4 17 7220.0wx-wxwx5wx--51016.1 995.1 -1.1- 0.012----- 11.0
2019-06-15 05:00:00 22.0 17.9 19.1--- 7820.0wx-wxwx5wx--51016.8 995.7 -0.8---------
2019-06-15 04:00:00 20.6 17.5 18.4--- 8220.0wx-wxwx4wx--41017.3 996.1 -0.4---------
2019-06-15 03:00:00 20.6 17.7 18.5--- 8320.0wx-wxwx5wx--51017.4 996.2 -0.6---------
2019-06-15 02:00:00 20.3 17.4 18.2--- 8320.0wxwxwxwxwx4wx--41017.7 996.5 -0.7---------
2019-06-15 01:00:00 21.3 17.6 18.7--- 7920.0wxwxwx3wx--31017.7 996.5 -1.0---------
2019-06-15 00:00:00 20.3 17.6 18.4--- 8520.0wx-3wx--31018.0 996.8 -1.2- 0.06------
1.7 ms

 

Print Friendly, PDF & Email